createdAt,value
2018-11-07T00:02:11.517Z,1641.17
2018-11-07T00:04:39.445Z,1536.03
2018-11-07T00:07:07.307Z,1460.17
2018-11-07T00:09:35.179Z,1485.27
2018-11-07T00:12:03.031Z,1514.13
2018-11-07T00:14:30.883Z,1460.87
2018-11-07T00:16:58.742Z,1524.17
2018-11-07T00:19:26.618Z,1454.40
2018-11-07T00:21:54.495Z,1561.33
2018-11-07T00:24:22.459Z,1630.87
2018-11-07T00:26:50.314Z,1524.83
2018-11-07T00:29:18.176Z,1544.37
2018-11-07T00:31:46.042Z,1472.63
2018-11-07T00:34:14.124Z,1510.00
2018-11-07T00:36:41.998Z,1523.80
2018-11-07T00:39:10.419Z,1509.03
2018-11-07T00:41:38.311Z,1472.77
2018-11-07T00:44:06.358Z,1624.40
2018-11-07T00:46:34.226Z,1578.33
2018-11-07T00:49:02.175Z,1506.60
2018-11-07T00:51:30.384Z,1442.93
2018-11-07T00:53:58.235Z,1533.30
2018-11-07T00:56:26.113Z,1625.90
2018-11-07T00:58:54.091Z,1609.50
2018-11-07T01:01:21.975Z,1544.97
2018-11-07T01:03:49.855Z,1275.50
2018-11-07T01:06:17.723Z,1497.33
2018-11-07T01:08:45.590Z,1524.63
2018-11-07T01:11:13.486Z,1394.37
2018-11-07T01:13:41.360Z,1346.97
2018-11-07T01:16:09.225Z,1409.83
2018-11-07T01:18:37.178Z,1331.43
2018-11-07T01:21:05.131Z,1624.07
2018-11-07T01:23:33.243Z,1789.80
2018-11-07T01:26:01.115Z,1570.40
2018-11-07T01:28:28.985Z,1585.47
2018-11-07T01:30:56.851Z,1702.13
2018-11-07T01:33:24.702Z,1858.33
2018-11-07T01:35:52.556Z,1991.80
2018-11-07T01:38:20.591Z,1881.60
2018-11-07T01:40:48.463Z,1949.40
2018-11-07T01:43:16.361Z,1999.90
2018-11-07T01:45:44.211Z,1769.70
2018-11-07T01:48:12.075Z,1838.50
2018-11-07T01:50:40.023Z,1787.03
2018-11-07T01:53:07.887Z,1797.43
2018-11-07T01:55:35.750Z,1960.90
2018-11-07T01:58:03.610Z,1964.10
2018-11-07T02:00:31.483Z,1960.63
2018-11-07T02:02:59.344Z,1940.33
2018-11-07T02:05:27.214Z,1986.70
2018-11-07T02:07:55.094Z,1985.40
2018-11-07T02:10:22.955Z,1762.77
2018-11-07T02:12:50.819Z,1923.80
2018-11-07T02:15:18.694Z,1724.40
2018-11-07T02:17:46.551Z,1755.80
2018-11-07T02:20:14.394Z,1720.93
2018-11-07T02:22:42.292Z,1486.30
2018-11-07T02:25:10.175Z,1265.00
2018-11-07T02:27:38.300Z,1457.60
2018-11-07T02:30:07.759Z,1290.50
2018-11-07T02:32:35.606Z,1561.40
2018-11-07T02:35:03.514Z,1556.30
2018-11-07T02:37:31.368Z,1837.30
2018-11-07T02:39:59.264Z,1897.47
2018-11-07T02:42:27.110Z,1999.90
2018-11-07T02:44:54.957Z,1982.20
2018-11-07T02:47:22.824Z,1952.60
2018-11-07T02:49:50.703Z,1999.90
2018-11-07T02:52:18.563Z,1999.90
2018-11-07T02:54:46.427Z,1999.90
2018-11-07T02:57:15.463Z,1999.90
2018-11-07T02:59:43.785Z,1999.90
2018-11-07T03:02:12.869Z,1999.90
2018-11-07T03:04:41.849Z,1999.90
2018-11-07T03:07:10.968Z,1999.90
2018-11-07T03:09:39.902Z,1999.90
2018-11-07T03:12:09.076Z,1999.90
2018-11-07T03:14:39.668Z,1999.90
2018-11-07T03:17:08.698Z,1999.90
2018-11-07T03:19:37.542Z,1999.90
2018-11-07T03:22:06.019Z,1999.90
2018-11-07T03:24:34.001Z,1999.90
2018-11-07T03:27:02.041Z,1999.90
2018-11-07T03:29:30.206Z,1999.90
2018-11-07T03:31:58.530Z,1999.90
2018-11-07T03:34:26.605Z,1999.90
2018-11-07T03:36:54.626Z,1999.90
2018-11-07T03:39:22.615Z,1849.37
2018-11-07T03:41:51.454Z,1787.17
2018-11-07T03:44:20.172Z,1477.97
2018-11-07T03:46:48.137Z,1591.10
2018-11-07T03:49:16.138Z,1289.30
2018-11-07T03:51:44.316Z,1187.30
2018-11-07T03:54:12.645Z,1363.37
2018-11-07T03:56:40.632Z,1204.63
2018-11-07T03:59:09.310Z,1232.03
2018-11-07T04:01:37.847Z,1463.53
2018-11-07T04:04:06.883Z,1769.63
2018-11-07T04:06:35.797Z,1974.30
2018-11-07T04:09:06.129Z,1999.90
2018-11-07T04:11:34.221Z,1986.60
2018-11-07T04:14:02.888Z,1920.63
2018-11-07T04:16:31.361Z,1831.97
2018-11-07T04:18:59.291Z,1737.57
2018-11-07T04:21:27.238Z,1700.47
2018-11-07T04:24:01.528Z,1602.10
2018-11-07T04:26:30.497Z,1636.07
2018-11-07T04:28:58.624Z,1368.70
2018-11-07T04:31:26.914Z,1244.37
2018-11-07T04:33:54.869Z,1272.57
2018-11-07T04:36:24.356Z,1201.00
2018-11-07T04:38:52.622Z,1217.30
2018-11-07T04:41:20.772Z,1220.60
2018-11-07T04:43:48.975Z,1225.17
2018-11-07T04:46:17.810Z,1187.27
2018-11-07T04:48:45.709Z,1197.63
2018-11-07T04:51:14.079Z,1252.27
2018-11-07T04:53:41.966Z,1210.20
2018-11-07T04:56:09.871Z,1204.50
2018-11-07T04:58:37.726Z,1099.47
2018-11-07T05:01:06.063Z,1104.37
2018-11-07T05:03:33.975Z,1085.00
2018-11-07T05:06:01.828Z,1091.80
2018-11-07T05:08:29.758Z,1256.93
2018-11-07T05:10:57.557Z,1095.20
2018-11-07T05:13:25.407Z,1151.93
2018-11-07T05:15:53.245Z,1120.97
2018-11-07T05:18:21.441Z,1117.93
2018-11-07T05:20:49.313Z,1140.37
2018-11-07T05:23:17.167Z,1130.40
2018-11-07T05:25:45.116Z,1114.37
2018-11-07T05:28:12.975Z,1113.33
2018-11-07T05:30:40.852Z,1101.80
2018-11-07T05:33:08.713Z,1145.53
2018-11-07T05:35:36.564Z,1069.80
2018-11-07T05:38:04.432Z,1033.67
2018-11-07T05:40:32.371Z,1131.27
2018-11-07T05:43:00.219Z,1069.50
2018-11-07T05:45:28.073Z,1075.00
2018-11-07T05:47:55.923Z,1073.97
2018-11-07T05:50:23.767Z,1106.07
2018-11-07T05:52:51.711Z,1126.17
2018-11-07T05:55:19.697Z,1231.03
2018-11-07T05:57:47.558Z,1113.50
2018-11-07T06:00:15.431Z,1092.73
2018-11-07T06:02:43.291Z,1143.60
2018-11-07T06:05:11.931Z,1063.17
2018-11-07T06:07:40.182Z,1108.13
2018-11-07T06:10:09.316Z,1093.87
2018-11-07T06:12:37.579Z,1165.33
2018-11-07T06:15:05.795Z,1069.13
2018-11-07T06:17:33.667Z,1190.53
2018-11-07T06:20:01.547Z,1144.23
2018-11-07T06:22:29.401Z,1194.97
2018-11-07T06:24:57.335Z,1136.20
2018-11-07T06:27:25.099Z,1057.97
2018-11-07T06:29:53.098Z,1089.40
2018-11-07T06:32:20.939Z,1060.90
2018-11-07T06:34:48.794Z,1078.73
2018-11-07T06:37:16.668Z,1065.70
2018-11-07T06:39:44.515Z,1130.50
2018-11-07T06:42:12.391Z,1086.30
2018-11-07T06:44:40.258Z,1091.83
2018-11-07T06:47:08.124Z,1176.23
2018-11-07T06:49:35.977Z,1016.17
2018-11-07T06:52:03.843Z,1060.00
2018-11-07T06:54:31.695Z,1110.70
2018-11-07T06:56:59.532Z,1122.87
2018-11-07T06:59:27.425Z,1068.37
2018-11-07T07:01:55.279Z,1049.97
2018-11-07T07:04:23.159Z,1102.07
2018-11-07T07:06:51.014Z,965.90
2018-11-07T07:09:18.890Z,1035.23
2018-11-07T07:11:46.758Z,990.87
2018-11-07T07:14:14.601Z,957.60
2018-11-07T07:16:42.490Z,989.63
2018-11-07T07:19:10.329Z,921.23
2018-11-07T07:21:38.206Z,962.97
2018-11-07T07:24:06.084Z,1066.97
2018-11-07T07:26:33.962Z,1091.27
2018-11-07T07:29:01.806Z,1082.47
2018-11-07T07:31:29.672Z,1035.27
2018-11-07T07:33:57.534Z,1086.07
2018-11-07T07:36:25.387Z,1038.00
2018-11-07T07:38:53.251Z,1066.47
2018-11-07T07:41:21.138Z,1115.93
2018-11-07T07:43:48.995Z,1184.60
2018-11-07T07:46:16.877Z,1176.67
2018-11-07T07:48:44.718Z,1211.67
2018-11-07T07:51:12.577Z,1183.20
2018-11-07T07:53:40.504Z,1201.07
2018-11-07T07:56:08.390Z,1198.80
2018-11-07T07:58:36.254Z,1198.53
2018-11-07T08:01:04.109Z,1236.57
2018-11-07T08:03:31.976Z,1263.93
2018-11-07T08:05:59.839Z,1212.03
2018-11-07T08:08:27.708Z,1302.57
2018-11-07T08:10:55.588Z,1266.47
2018-11-07T08:13:23.464Z,1239.50
2018-11-07T08:15:51.311Z,1304.77
2018-11-07T08:18:19.159Z,1261.00
2018-11-07T08:20:47.019Z,1216.53
2018-11-07T08:23:14.858Z,1420.23
2018-11-07T08:25:42.738Z,1191.77
2018-11-07T08:28:10.595Z,1220.37
2018-11-07T08:30:38.512Z,1137.67
2018-11-07T08:33:06.348Z,1135.13
2018-11-07T08:35:34.260Z,1204.73
2018-11-07T08:38:02.115Z,1104.57
2018-11-07T08:40:29.955Z,1157.60
2018-11-07T08:42:57.829Z,1192.43
2018-11-07T08:45:25.670Z,1188.07
2018-11-07T08:47:53.551Z,1266.27
2018-11-07T08:50:21.836Z,1225.20
2018-11-07T08:52:49.988Z,1228.83
2018-11-07T08:55:19.206Z,1226.20
2018-11-07T08:57:47.060Z,1138.20
2018-11-07T09:00:17.067Z,1189.73
2018-11-07T09:02:45.270Z,1072.90
2018-11-07T09:05:13.755Z,1145.73
2018-11-07T09:07:42.336Z,1053.90
2018-11-07T09:10:12.370Z,1061.53
2018-11-07T09:12:40.349Z,1158.97
2018-11-07T09:15:10.640Z,1087.90
2018-11-07T09:17:38.556Z,1098.13
2018-11-07T09:20:07.142Z,1175.47
2018-11-07T09:22:34.999Z,1081.20
2018-11-07T09:25:02.876Z,1110.77
2018-11-07T09:27:30.737Z,1123.67
2018-11-07T09:29:58.613Z,1101.40
2018-11-07T09:32:26.476Z,1113.23
2018-11-07T09:34:54.323Z,1225.83
2018-11-07T09:37:22.566Z,1237.67
2018-11-07T09:39:50.469Z,1231.53
2018-11-07T09:42:18.262Z,1224.33
2018-11-07T09:44:46.121Z,1296.90
2018-11-07T09:47:13.992Z,1263.93
2018-11-07T09:49:41.823Z,1324.17
2018-11-07T09:52:09.688Z,1264.87
2018-11-07T09:54:37.539Z,1264.23
2018-11-07T09:57:05.403Z,1223.93
2018-11-07T09:59:33.338Z,1237.87
2018-11-07T10:02:01.156Z,1331.87
2018-11-07T10:04:29.008Z,1287.60
2018-11-07T10:06:56.895Z,1389.10
2018-11-07T10:09:24.737Z,1324.03
2018-11-07T10:11:52.615Z,1293.00
2018-11-07T10:14:20.484Z,1334.17
2018-11-07T10:16:48.357Z,1411.77
2018-11-07T10:19:16.344Z,1606.80
2018-11-07T10:21:44.276Z,1513.87
2018-11-07T10:24:12.522Z,1741.10
2018-11-07T10:26:40.462Z,1401.07
2018-11-07T10:29:08.447Z,1602.17
2018-11-07T10:31:36.276Z,1378.23
2018-11-07T10:34:04.131Z,1446.50
2018-11-07T10:36:31.970Z,1810.90
2018-11-07T10:38:59.908Z,1483.33
2018-11-07T10:41:27.772Z,1649.57
2018-11-07T10:43:55.737Z,1653.60
2018-11-07T10:46:23.831Z,1315.97
2018-11-07T10:48:51.681Z,1464.87
2018-11-07T10:51:19.794Z,1338.77
2018-11-07T10:53:47.643Z,1541.97
2018-11-07T10:56:15.495Z,1600.83
2018-11-07T10:58:43.409Z,1747.40
2018-11-07T11:01:11.391Z,1462.70
2018-11-07T11:03:39.253Z,1529.43
2018-11-07T11:06:07.112Z,1595.40
2018-11-07T11:08:34.979Z,1730.03
2018-11-07T11:11:02.873Z,1738.50
2018-11-07T11:13:30.731Z,1751.43
2018-11-07T11:15:58.626Z,1631.33
2018-11-07T11:18:26.496Z,1921.60
2018-11-07T11:20:54.379Z,1999.90
2018-11-07T11:23:22.340Z,1975.47
2018-11-07T11:25:50.208Z,1765.43
2018-11-07T11:28:18.107Z,1761.77
2018-11-07T11:30:45.965Z,1999.90
2018-11-07T11:33:13.896Z,1999.90
2018-11-07T11:35:41.745Z,1912.90
2018-11-07T11:38:09.604Z,1784.83
2018-11-07T11:40:37.517Z,1848.17
2018-11-07T11:43:05.339Z,1649.67
2018-11-07T11:45:33.205Z,1609.90
2018-11-07T11:48:01.068Z,1718.40
2018-11-07T11:50:28.946Z,1599.50
2018-11-07T11:52:56.807Z,1554.20
2018-11-07T11:55:24.708Z,1653.20
2018-11-07T11:57:52.573Z,1622.53
2018-11-07T12:00:21.171Z,1512.90
2018-11-07T12:02:49.238Z,1476.97
2018-11-07T12:05:18.055Z,1495.10
2018-11-07T12:07:45.910Z,1499.40
2018-11-07T12:10:22.162Z,1647.83
2018-11-07T12:12:51.211Z,1784.20
2018-11-07T12:15:20.142Z,1602.60
2018-11-07T12:17:47.935Z,1748.60
2018-11-07T12:20:15.835Z,1653.23
2018-11-07T12:22:43.719Z,1553.67
2018-11-07T12:25:12.745Z,1552.47
2018-11-07T12:27:41.215Z,1525.90
2018-11-07T12:30:10.116Z,1521.53
2018-11-07T12:32:38.008Z,1598.23
2018-11-07T12:35:05.952Z,1385.43
2018-11-07T12:37:33.796Z,1523.30
2018-11-07T12:40:01.660Z,1436.13
2018-11-07T12:42:29.511Z,1383.63
2018-11-07T12:44:57.402Z,1640.57
2018-11-07T12:47:25.304Z,1551.83
2018-11-07T12:49:53.256Z,1372.57
2018-11-07T12:52:21.006Z,1475.03
2018-11-07T12:54:48.854Z,1450.77
2018-11-07T12:57:16.857Z,1731.57
2018-11-07T12:59:44.689Z,1854.77
2018-11-07T13:02:12.536Z,1760.23
2018-11-07T13:04:40.389Z,1708.80
2018-11-07T13:07:08.233Z,1419.23
2018-11-07T13:09:36.112Z,1583.63
2018-11-07T13:12:03.996Z,1509.83
2018-11-07T13:14:31.867Z,1669.37
2018-11-07T13:17:00.201Z,1999.90
2018-11-07T13:19:28.215Z,1960.47
2018-11-07T13:21:56.231Z,1831.20
2018-11-07T13:24:24.102Z,1687.17
2018-11-07T13:26:51.980Z,1629.97
2018-11-07T13:29:19.827Z,1563.77
2018-11-07T13:31:47.805Z,1469.00
2018-11-07T13:34:15.681Z,1473.93
2018-11-07T13:36:43.804Z,1429.53
2018-11-07T13:39:13.074Z,1409.43
2018-11-07T13:41:41.006Z,1319.33
2018-11-07T13:44:08.883Z,1458.60
2018-11-07T13:46:36.759Z,1396.40
2018-11-07T13:49:05.049Z,1407.40
2018-11-07T13:51:32.912Z,1340.60
2018-11-07T13:54:00.766Z,1340.67
2018-11-07T13:56:28.663Z,1304.07
2018-11-07T13:58:56.638Z,1286.17
2018-11-07T14:01:24.504Z,1249.30
2018-11-07T14:03:52.375Z,1262.50
2018-11-07T14:06:20.403Z,1272.83
2018-11-07T14:08:48.394Z,1259.70
2018-11-07T14:11:16.338Z,1195.67
2018-11-07T14:13:44.178Z,1176.47
2018-11-07T14:16:12.052Z,1230.50
2018-11-07T14:18:39.877Z,1133.53
2018-11-07T14:21:07.734Z,1196.70
2018-11-07T14:23:35.588Z,1170.20
2018-11-07T14:26:03.452Z,1145.43
2018-11-07T14:28:31.414Z,1137.70
2018-11-07T14:30:59.182Z,1106.67
2018-11-07T14:33:27.080Z,1108.23
2018-11-07T14:35:55.020Z,1300.93
2018-11-07T14:39:47.347Z,1197.10
2018-11-07T14:42:15.221Z,1197.57
2018-11-07T14:44:43.108Z,1193.47
2018-11-07T14:47:11.099Z,1174.43
2018-11-07T14:49:39.054Z,1188.40
2018-11-07T14:52:07.039Z,1141.57
2018-11-07T14:54:34.978Z,1070.57
2018-11-07T14:57:02.947Z,1022.77
2018-11-07T14:59:30.801Z,785.97
2018-11-07T15:01:58.651Z,996.47
2018-11-07T15:04:26.592Z,1050.27
2018-11-07T15:06:54.514Z,1139.70
2018-11-07T15:09:22.378Z,1169.37
2018-11-07T15:11:50.340Z,1158.50
2018-11-07T15:14:18.128Z,1172.93
2018-11-07T15:16:46.091Z,1193.73
2018-11-07T15:19:14.080Z,1230.40
2018-11-07T15:21:41.943Z,1221.80
2018-11-07T15:24:09.787Z,1168.37
2018-11-07T15:26:41.293Z,1187.80
2018-11-07T15:29:09.323Z,1180.07
2018-11-07T15:31:40.275Z,1182.50
2018-11-07T15:34:18.589Z,1103.37
2018-11-07T15:36:55.252Z,1141.63
2018-11-07T15:39:31.363Z,1197.70
2018-11-07T15:41:59.686Z,1229.03
2018-11-07T15:44:27.687Z,1154.07
2018-11-07T15:46:55.529Z,1161.70
2018-11-07T15:49:32.867Z,1144.07
2018-11-07T15:52:01.197Z,1167.23
2018-11-07T15:54:42.507Z,1322.17
2018-11-07T15:57:10.996Z,1263.33
2018-11-07T15:59:38.847Z,1144.60
2018-11-07T16:02:06.698Z,1076.70
2018-11-07T16:04:34.554Z,1154.07
2018-11-07T16:07:02.515Z,1085.40
2018-11-07T16:09:30.435Z,1109.20
2018-11-07T16:11:58.385Z,1069.73
2018-11-07T16:14:26.245Z,1105.50
2018-11-07T16:16:59.460Z,1095.83
2018-11-07T16:19:30.580Z,1050.27
2018-11-07T16:22:15.095Z,1030.73
2018-11-07T16:24:43.691Z,995.20
2018-11-07T16:27:23.559Z,1039.60
2018-11-07T16:29:57.324Z,1015.53
2018-11-07T16:32:35.012Z,1031.03
2018-11-07T16:35:15.369Z,1028.77
2018-11-07T16:37:51.748Z,1081.63
2018-11-07T16:40:24.072Z,1066.60
2018-11-07T16:42:52.072Z,1028.90
2018-11-07T16:45:19.951Z,1000.83
2018-11-07T16:47:47.917Z,974.83
2018-11-07T16:50:22.533Z,1003.67
2018-11-07T16:52:50.435Z,1080.67
2018-11-07T16:55:18.278Z,1085.33
2018-11-07T16:57:46.152Z,1093.40
2018-11-07T17:00:16.342Z,993.43
2018-11-07T17:02:44.881Z,1003.90
2018-11-07T17:05:13.524Z,1087.80
2018-11-07T17:07:41.456Z,999.83
2018-11-07T17:10:10.182Z,1020.43
2018-11-07T17:12:38.080Z,1020.70
2018-11-07T17:15:15.976Z,1027.43
2018-11-07T17:17:44.212Z,1078.40
2018-11-07T17:20:13.418Z,1015.43
2018-11-07T17:22:46.324Z,992.20
2018-11-07T17:25:21.755Z,966.93
2018-11-07T17:27:53.438Z,1004.73
2018-11-07T17:30:21.683Z,989.37
2018-11-07T17:32:49.567Z,1034.57
2018-11-07T17:35:18.299Z,1085.80
2018-11-07T17:37:46.524Z,1057.47
2018-11-07T17:40:16.303Z,1119.13
2018-11-07T17:42:44.510Z,1040.40
2018-11-07T17:45:13.788Z,1075.03
2018-11-07T17:47:42.101Z,1096.27
2018-11-07T17:50:11.215Z,1158.30
2018-11-07T17:52:39.345Z,1097.60
2018-11-07T17:55:07.383Z,1065.80
2018-11-07T17:57:35.277Z,1161.13
2018-11-07T18:00:03.244Z,1127.50
2018-11-07T18:02:31.520Z,1179.10
2018-11-07T18:04:59.392Z,1219.03
2018-11-07T18:07:27.254Z,1317.27
2018-11-07T18:09:55.159Z,1582.90
2018-11-07T18:12:22.959Z,1495.30
2018-11-07T18:14:50.822Z,1287.10
2018-11-07T18:17:18.796Z,1564.63
2018-11-07T18:19:47.559Z,1466.03
2018-11-07T18:22:16.689Z,1413.57
2018-11-07T18:24:45.326Z,1466.27
2018-11-07T18:27:13.896Z,1493.07
2018-11-07T18:29:42.756Z,1334.47
2018-11-07T18:32:11.902Z,1498.37
2018-11-07T18:34:40.864Z,1469.33
2018-11-07T18:37:09.338Z,1525.63
2018-11-07T18:39:39.323Z,1396.37
2018-11-07T18:42:08.748Z,1344.03
2018-11-07T18:44:37.713Z,1366.50
2018-11-07T18:47:06.420Z,1304.90
2018-11-07T18:49:34.521Z,1339.43
2018-11-07T18:52:03.113Z,1326.67
2018-11-07T18:54:32.104Z,1449.93
2018-11-07T18:57:00.547Z,1439.30
2018-11-07T18:59:28.740Z,1630.73
2018-11-07T19:01:57.802Z,1646.73
2018-11-07T19:04:31.309Z,1820.47
2018-11-07T19:07:03.794Z,1945.10
2018-11-07T19:09:32.271Z,1998.87
2018-11-07T19:12:00.900Z,1973.03
2018-11-07T19:14:29.284Z,1999.90
2018-11-07T19:16:57.843Z,1993.77
2018-11-07T19:19:26.600Z,1999.90
2018-11-07T19:21:55.754Z,1999.90
2018-11-07T19:24:24.573Z,1999.90
2018-11-07T19:26:54.414Z,1999.90
2018-11-07T19:29:23.685Z,1999.90
2018-11-07T19:31:55.928Z,1999.90
2018-11-07T19:34:25.716Z,1999.90
2018-11-07T19:36:55.967Z,1992.77
2018-11-07T19:39:25.134Z,1999.90
2018-11-07T19:41:53.806Z,1999.90
2018-11-07T19:44:23.455Z,1999.90
2018-11-07T19:46:51.906Z,1999.90
2018-11-07T19:49:20.509Z,1929.43
2018-11-07T19:51:48.983Z,1960.67
2018-11-07T19:54:21.103Z,1948.37
2018-11-07T19:56:49.340Z,1999.90
2018-11-07T19:59:17.209Z,1999.90
2018-11-07T20:01:45.060Z,1999.90
2018-11-07T20:04:12.993Z,1999.90
2018-11-07T20:06:40.853Z,1999.90
2018-11-07T20:09:09.018Z,1999.90
2018-11-07T20:11:36.970Z,1999.90
2018-11-07T20:14:05.051Z,1999.90
2018-11-07T20:16:32.976Z,1999.90
2018-11-07T20:19:01.010Z,1999.90
2018-11-07T20:21:28.873Z,1999.90
2018-11-07T20:23:57.531Z,1999.90
2018-11-07T20:26:25.501Z,1999.90
2018-11-07T20:28:53.453Z,1999.90
2018-11-07T20:31:21.344Z,1999.90
2018-11-07T20:33:49.187Z,1999.90
2018-11-07T20:36:17.255Z,1999.90
2018-11-07T20:38:45.011Z,1999.90
2018-11-07T20:41:12.889Z,1999.90
2018-11-07T20:43:40.816Z,1999.90
2018-11-07T20:46:08.662Z,1999.90
2018-11-07T20:48:36.793Z,1999.90
2018-11-07T20:51:04.825Z,1999.90
2018-11-07T20:53:32.698Z,1999.90
2018-11-07T20:56:00.666Z,1999.90
2018-11-07T20:58:28.523Z,1999.90
2018-11-07T21:00:56.419Z,1999.90
2018-11-07T21:03:24.270Z,1999.90
2018-11-07T21:05:52.187Z,1999.90
2018-11-07T21:08:20.171Z,1999.90
2018-11-07T21:10:48.036Z,1999.90
2018-11-07T21:13:17.434Z,1999.90
2018-11-07T21:15:45.854Z,1999.90
2018-11-07T21:18:13.801Z,1999.90
2018-11-07T21:20:41.724Z,1999.90
2018-11-07T21:23:09.645Z,1999.90
2018-11-07T21:25:37.489Z,1999.90
2018-11-07T21:28:05.346Z,1999.90
2018-11-07T21:30:33.212Z,1999.90
2018-11-07T21:33:01.103Z,1999.90
2018-11-07T21:35:28.971Z,1999.90
2018-11-07T21:37:56.843Z,1999.90
2018-11-07T21:40:24.709Z,1999.90
2018-11-07T21:42:52.751Z,1999.90
2018-11-07T21:45:20.592Z,1999.90
2018-11-07T21:47:48.510Z,1999.90
2018-11-07T21:50:16.797Z,1999.90
2018-11-07T21:52:44.729Z,1999.90
2018-11-07T21:55:12.566Z,1999.90
2018-11-07T21:57:40.485Z,1999.90
2018-11-07T22:00:09.142Z,1999.90
2018-11-07T22:02:37.023Z,1999.90
2018-11-07T22:05:05.230Z,1999.90
2018-11-07T22:07:33.094Z,1999.90
2018-11-07T22:10:00.964Z,1999.90
2018-11-07T22:12:28.808Z,1999.90
2018-11-07T22:14:56.697Z,1999.90
2018-11-07T22:17:24.573Z,1999.90
2018-11-07T22:19:52.454Z,1999.90
2018-11-07T22:22:20.381Z,1999.90
2018-11-07T22:24:48.225Z,1999.90
2018-11-07T22:27:16.121Z,1999.90
2018-11-07T22:29:43.963Z,1999.90
2018-11-07T22:32:11.840Z,1999.90
2018-11-07T22:34:39.703Z,1999.90
2018-11-07T22:37:07.611Z,1999.90
2018-11-07T22:39:35.467Z,1999.90
2018-11-07T22:42:03.319Z,1999.90
2018-11-07T22:44:31.256Z,1999.90
2018-11-07T22:46:59.124Z,1999.90
2018-11-07T22:49:27.051Z,1999.90
2018-11-07T22:51:54.967Z,1999.90
2018-11-07T22:54:22.823Z,1999.90
2018-11-07T22:56:50.682Z,1999.90
2018-11-07T22:59:18.606Z,1999.90
2018-11-07T23:01:46.733Z,1999.90
2018-11-07T23:04:14.708Z,1999.90
2018-11-07T23:06:42.611Z,1999.90
2018-11-07T23:09:11.831Z,1999.90
2018-11-07T23:11:41.800Z,1999.90
2018-11-07T23:14:11.311Z,1999.90
2018-11-07T23:16:39.375Z,1999.90
2018-11-07T23:19:07.534Z,1999.90
2018-11-07T23:21:35.565Z,1999.90
2018-11-07T23:24:03.527Z,1999.90
2018-11-07T23:26:31.594Z,1999.90
2018-11-07T23:28:59.476Z,1999.90
2018-11-07T23:31:27.588Z,1999.90
2018-11-07T23:33:55.489Z,1999.90
2018-11-07T23:36:23.362Z,1999.90
2018-11-07T23:38:51.604Z,1999.90
2018-11-07T23:41:19.531Z,1999.90
2018-11-07T23:43:47.467Z,1999.90
2018-11-07T23:46:15.302Z,1999.90
2018-11-07T23:48:43.154Z,1999.90
2018-11-07T23:51:10.989Z,1999.90
2018-11-07T23:53:38.833Z,1999.90
2018-11-07T23:56:06.678Z,1999.90
2018-11-07T23:58:34.531Z,1999.90
